Time;durP1;ratioP1;P1;durP2;ratioP2;P2;SDS_P1;SDS_P2;PMS_P1;PMS_P2;Temp;Humidity;BMP_temperature;BMP_pressure;BME280_temperature;BME280_humidity;BME280_pressure;Samples;Min_cycle;Max_cycle;Signal;HPM_P1;HPM_P2
2021/10/30 00:02:45;;;;;;;30.92;18.40;;;;;;;9.86;62.97;101072.78;5033981;28;20049;-61
2021/10/30 00:05:30;;;;;;;38.90;22.05;;;;;;;9.81;63.09;101079.13;5033752;28;20537;-61
2021/10/30 00:08:16;;;;;;;32.00;17.55;;;;;;;9.91;62.63;101080.81;5033682;28;20410;-61
2021/10/30 00:11:00;;;;;;;36.47;22.33;;;;;;;9.81;63.15;101075.59;5033579;28;20052;-61
2021/10/30 00:13:46;;;;;;;42.20;23.08;;;;;;;9.74;63.34;101076.00;5033737;28;20049;-61
2021/10/30 00:16:30;;;;;;;28.67;17.92;;;;;;;9.62;63.24;101080.31;5033577;28;20068;-61
2021/10/30 00:19:15;;;;;;;;;;;;;;;9.57;63.67;101074.97;5034120;28;20514;-61
2021/10/30 00:22:00;;;;;;;39.17;21.20;;;;;;;9.54;63.90;101070.97;5033634;28;19913;-61
2021/10/30 00:24:45;;;;;;;32.58;17.42;;;;;;;9.58;63.99;101069.25;5033584;28;20537;-60
2021/10/30 00:27:30;;;;;;;37.70;22.38;;;;;;;9.56;64.24;101057.06;5033622;28;20060;-60
2021/10/30 00:30:15;;;;;;;;;;;;;;;9.57;64.57;101053.25;5033880;28;20533;-61
2021/10/30 00:33:00;;;;;;;52.40;24.70;;;;;;;9.64;64.28;101045.53;5033835;28;20378;-60
2021/10/30 00:35:45;;;;;;;37.45;16.23;;;;;;;9.64;64.03;101050.94;5033327;28;20509;-60
2021/10/30 00:38:30;;;;;;;31.50;17.98;;;;;;;9.72;64.47;101055.66;5033223;28;20050;-60
2021/10/30 00:41:15;;;;;;;35.75;17.48;;;;;;;9.73;63.70;101046.44;5033203;28;20057;-61
2021/10/30 00:44:10;;;;;;;37.42;20.55;;;;;;;9.71;63.82;101040.47;5033355;28;20068;-61
2021/10/30 00:46:55;;;;;;;29.05;16.92;;;;;;;9.66;63.85;101043.28;5033011;28;20498;-61
2021/10/30 00:49:43;;;;;;;33.22;16.95;;;;;;;9.62;64.19;101036.88;5033191;28;20068;-61
2021/10/30 00:52:29;;;;;;;35.83;22.40;;;;;;;9.61;64.09;101044.19;5032525;28;20056;-61
2021/10/30 00:55:14;;;;;;;37.25;21.85;;;;;;;9.62;63.98;101034.97;5038685;28;20052;-61
2021/10/30 00:58:02;;;;;;;31.08;17.42;;;;;;;9.70;63.81;101033.47;5032916;28;20076;-61
2021/10/30 01:00:49;;;;;;;44.85;23.52;;;;;;;9.53;64.56;101039.47;5033098;28;20068;-61
2021/10/30 01:03:35;;;;;;;37.50;23.20;;;;;;;9.62;64.48;101043.09;5033178;28;20206;-60
2021/10/30 01:06:20;;;;;;;34.92;21.55;;;;;;;9.69;63.81;101031.84;5032975;28;20048;-61
2021/10/30 01:09:06;;;;;;;33.83;21.58;;;;;;;9.57;64.27;101036.97;5032764;28;20488;-61
2021/10/30 01:11:52;;;;;;;36.70;21.33;;;;;;;9.64;64.06;101021.91;5032843;28;20045;-61
2021/10/30 01:14:39;;;;;;;34.15;20.13;;;;;;;9.62;63.52;101020.56;5032548;28;20064;-61
2021/10/30 01:17:24;;;;;;;40.90;21.88;;;;;;;9.57;63.89;101026.09;5032820;28;20064;-61
2021/10/30 01:20:18;;;;;;;;;;;;;;;9.57;64.12;101012.53;5033072;28;20052;-61
2021/10/30 01:23:03;;;;;;;37.83;20.27;;;;;;;9.49;64.95;101000.47;5032531;28;19913;-61
2021/10/30 01:25:55;;;;;;;24.25;15.02;;;;;;;9.52;65.08;100996.34;5032664;28;20044;-61
2021/10/30 01:28:41;;;;;;;31.65;19.48;;;;;;;9.49;65.58;100997.75;5032282;28;20053;-61
2021/10/30 01:31:26;;;;;;;29.08;17.15;;;;;;;9.57;64.73;100993.53;5032529;28;20068;-61
2021/10/30 01:34:11;;;;;;;36.83;19.27;;;;;;;9.30;64.86;100997.81;5032154;28;20052;-61
2021/10/30 01:36:56;;;;;;;28.38;15.23;;;;;;;9.25;64.23;100999.81;5032229;28;20056;-61
2021/10/30 01:39:42;;;;;;;37.42;20.27;;;;;;;9.25;64.37;100992.47;5032138;28;20041;-61
2021/10/30 01:42:26;;;;;;;25.65;14.20;;;;;;;9.25;64.17;100987.06;5032344;28;20053;-61
2021/10/30 01:45:11;;;;;;;27.60;15.40;;;;;;;9.25;65.21;100981.63;5038726;28;20040;-60
2021/10/30 01:47:57;;;;;;;;;;;;;;;9.41;64.77;100976.72;5032509;28;20048;-60
2021/10/30 01:50:42;;;;;;;29.92;17.27;;;;;;;9.47;64.60;100974.72;5031689;28;20363;-60
2021/10/30 01:53:27;;;;;;;33.70;18.02;;;;;;;9.42;64.63;100979.16;5032159;28;20044;-60
2021/10/30 01:56:12;;;;;;;27.50;15.18;;;;;;;9.38;64.27;100977.34;5031961;28;20052;-60
2021/10/30 01:58:58;;;;;;;27.25;15.00;;;;;;;9.43;64.32;100977.25;5031977;28;20048;-60
2021/10/30 02:01:43;;;;;;;32.75;16.60;;;;;;;9.49;64.52;100972.53;5031991;28;20128;-62
2021/10/30 02:04:28;;;;;;;;;;;;;;;9.49;64.45;100964.38;5031597;28;20056;-61
2021/10/30 02:07:13;;;;;;;26.52;16.77;;;;;;;9.38;64.47;100952.91;5030732;28;19913;-61
2021/10/30 02:09:58;;;;;;;20.60;13.05;;;;;;;9.18;64.75;100962.25;5031771;28;20068;-61
2021/10/30 02:12:43;;;;;;;20.80;12.73;;;;;;;9.19;65.38;100952.19;5031639;28;20056;-61
2021/10/30 02:15:29;;;;;;;30.35;16.85;;;;;;;9.11;64.63;100964.53;5031739;28;20045;-60
2021/10/30 02:18:14;;;;;;;21.15;13.43;;;;;;;9.07;64.28;100954.59;5031628;28;20040;-60
2021/10/30 02:20:59;;;;;;;41.63;17.52;;;;;;;9.04;64.28;100953.25;5031623;28;20052;-62
2021/10/30 02:23:44;;;;;;;24.40;12.45;;;;;;;9.06;64.50;100961.91;5031724;28;20040;-62
2021/10/30 02:26:29;;;;;;;29.92;17.00;;;;;;;8.99;64.78;100970.44;5031630;28;20505;-62
2021/10/30 02:29:15;;;;;;;26.85;13.68;;;;;;;9.06;65.26;100974.66;5031179;28;20463;-61
2021/10/30 02:32:01;;;;;;;25.92;12.80;;;;;;;8.99;64.95;100977.75;5031616;28;20052;-60
2021/10/30 02:34:46;;;;;;;30.58;16.42;;;;;;;8.96;64.62;100978.38;5037066;28;20418;-61
2021/10/30 02:37:32;;;;;;;22.92;12.60;;;;;;;8.78;64.84;100979.22;5031482;28;20411;-61
2021/10/30 02:40:17;;;;;;;23.02;13.52;;;;;;;8.87;64.47;100985.56;5031125;28;20052;-61
2021/10/30 02:43:02;;;;;;;29.75;12.80;;;;;;;8.89;64.19;100999.63;5031634;28;20060;-61
2021/10/30 02:45:47;;;;;;;22.33;13.98;;;;;;;8.82;64.71;100996.50;5031365;28;20064;-61
2021/10/30 02:48:32;;;;;;;26.55;14.95;;;;;;;8.70;64.87;101007.00;5031428;28;20067;-61
2021/10/30 02:51:17;;;;;;;21.42;13.00;;;;;;;8.72;64.88;101007.53;5038007;28;20049;-61
2021/10/30 02:54:04;;;;;;;31.55;17.00;;;;;;;8.84;64.45;100999.72;5031437;28;20510;-61
2021/10/30 02:56:49;;;;;;;31.27;17.23;;;;;;;8.97;63.92;100998.97;5031177;28;20065;-61
2021/10/30 02:59:34;;;;;;;21.83;13.40;;;;;;;8.81;64.10;101008.44;5031350;28;20048;-60
2021/10/30 03:02:19;;;;;;;29.30;16.50;;;;;;;8.73;64.41;101007.22;5031023;28;20060;-61
2021/10/30 03:05:05;;;;;;;25.10;13.60;;;;;;;8.74;64.29;101011.53;5031322;28;20048;-61
2021/10/30 03:07:52;;;;;;;30.48;17.42;;;;;;;8.65;64.57;101015.22;5031170;28;20128;-61
2021/10/30 03:10:37;;;;;;;26.10;14.15;;;;;;;8.55;64.59;101021.59;5031443;28;20152;-61
2021/10/30 03:13:22;;;;;;;25.98;14.88;;;;;;;8.62;64.60;101027.47;5031204;28;20166;-61
2021/10/30 03:16:07;;;;;;;25.10;13.90;;;;;;;8.54;64.42;101031.63;5032838;28;20505;-61
2021/10/30 03:18:52;;;;;;;32.22;14.15;;;;;;;8.43;64.93;101032.88;5034715;28;20541;-61
2021/10/30 03:21:37;;;;;;;25.17;13.38;;;;;;;8.38;65.63;101034.88;5034696;28;20041;-61
2021/10/30 03:24:22;;;;;;;22.17;13.00;;;;;;;8.33;65.65;101024.88;5033898;28;20053;-61
2021/10/30 03:27:07;;;;;;;21.95;13.50;;;;;;;8.37;65.46;101025.94;5034744;28;20048;-61
2021/10/30 03:29:52;;;;;;;28.02;14.38;;;;;;;8.39;65.66;101029.13;5034609;28;20052;-60
2021/10/30 03:32:37;;;;;;;31.38;18.33;;;;;;;8.37;65.18;101017.81;5034798;28;20052;-60
2021/10/30 03:35:22;;;;;;;23.63;14.60;;;;;;;8.44;65.20;101020.13;5034645;28;20052;-61
2021/10/30 03:38:07;;;;;;;;;;;;;;;8.40;65.55;101019.09;5034753;28;20048;-61
2021/10/30 03:40:52;;;;;;;29.25;17.08;;;;;;;8.40;65.19;101024.53;5034550;28;20301;-61
2021/10/30 03:43:37;;;;;;;31.83;17.55;;;;;;;8.21;65.29;101024.50;5034381;28;20399;-61
2021/10/30 03:46:22;;;;;;;27.45;14.90;;;;;;;8.60;63.21;101026.94;5034381;28;20446;-60
2021/10/30 03:49:07;;;;;;;;;;;;;;;8.33;64.04;101024.88;5034718;28;20406;-60
2021/10/30 03:51:53;;;;;;;28.77;16.65;;;;;;;8.20;65.61;101022.06;5034264;28;19912;-60
2021/10/30 03:54:38;;;;;;;27.63;15.52;;;;;;;8.32;65.91;101028.72;5034239;28;20428;-60
2021/10/30 03:57:23;;;;;;;27.33;13.18;;;;;;;8.38;65.76;101024.81;5034165;28;20056;-60
2021/10/30 04:00:08;;;;;;;32.60;13.95;;;;;;;8.45;66.10;101027.97;5034208;28;20045;-60
2021/10/30 04:03:00;;;;;;;32.25;17.75;;;;;;;8.55;66.30;101021.59;5033974;28;20057;-60
2021/10/30 04:05:44;;;;;;;24.48;14.13;;;;;;;8.62;65.76;101022.03;5034062;28;20049;-60
2021/10/30 04:08:29;;;;;;;22.58;13.27;;;;;;;8.58;65.04;101010.97;5034162;28;20053;-61
2021/10/30 04:11:15;;;;;;;24.15;14.27;;;;;;;8.59;65.23;101007.16;5034026;28;20052;-60
2021/10/30 04:14:00;;;;;;;33.28;18.38;;;;;;;8.47;65.13;100998.69;5033700;28;20060;-60
2021/10/30 04:16:45;;;;;;;28.70;13.70;;;;;;;8.32;65.33;100995.41;5033905;28;20056;-60
2021/10/30 04:19:31;;;;;;;28.75;16.40;;;;;;;8.32;65.57;100987.25;5033781;28;20049;-60
2021/10/30 04:22:16;;;;;;;29.27;16.13;;;;;;;8.34;65.21;100979.63;5033546;28;20060;-60
2021/10/30 04:25:01;;;;;;;20.45;11.55;;;;;;;8.35;66.17;100982.06;5033856;28;20053;-60
2021/10/30 04:27:46;;;;;;;22.10;13.23;;;;;;;8.34;65.69;100966.88;5032559;28;20048;-60
2021/10/30 04:30:31;;;;;;;21.65;13.02;;;;;;;8.41;65.55;100969.25;5033642;28;20048;-59
2021/10/30 04:33:17;;;;;;;27.58;16.50;;;;;;;8.37;66.02;100977.16;5033624;28;20068;-60
2021/10/30 04:36:05;;;;;;;28.75;15.73;;;;;;;8.36;65.39;100977.44;5033201;28;20072;-60
2021/10/30 04:38:50;;;;;;;24.83;14.60;;;;;;;8.21;66.17;100974.94;5033272;28;20783;-60
2021/10/30 04:41:38;;;;;;;22.52;13.00;;;;;;;8.17;65.46;100972.00;5033359;28;20051;-60
2021/10/30 04:44:23;;;;;;;28.13;16.77;;;;;;;8.12;66.00;100974.78;5033268;28;20406;-60
2021/10/30 04:47:12;;;;;;;19.60;12.55;;;;;;;8.12;65.85;100969.38;5033106;28;20072;-60
2021/10/30 04:49:57;;;;;;;30.45;16.02;;;;;;;7.93;67.89;100972.03;5033166;28;20045;-60
2021/10/30 04:52:44;;;;;;;21.98;12.60;;;;;;;7.92;67.65;100972.34;5033297;28;20402;-61
2021/10/30 04:55:29;;;;;;;25.33;16.27;;;;;;;7.91;67.24;100968.03;5033060;28;20052;-61
2021/10/30 04:58:14;;;;;;;21.33;12.48;;;;;;;7.87;66.68;100962.41;5032997;28;20044;-61
2021/10/30 05:01:00;;;;;;;22.60;12.05;;;;;;;7.81;67.01;100962.75;5031840;28;20048;-61
2021/10/30 05:03:45;;;;;;;39.25;17.88;;;;;;;7.88;66.33;100960.47;5032894;28;20052;-61
2021/10/30 05:06:30;;;;;;;42.35;17.40;;;;;;;7.89;65.85;100951.25;5032788;28;20044;-61
2021/10/30 05:09:15;;;;;;;26.52;12.23;;;;;;;7.84;66.86;100965.66;5032550;28;20419;-61
2021/10/30 05:12:00;;;;;;;23.80;13.27;;;;;;;7.93;67.21;100965.81;5032852;28;20048;-61
2021/10/30 05:14:45;;;;;;;27.77;13.63;;;;;;;7.93;67.11;100963.13;5032561;28;20056;-61
2021/10/30 05:17:30;;;;;;;20.33;11.88;;;;;;;7.98;66.92;100965.75;5032498;28;20044;-60
2021/10/30 05:20:15;;;;;;;27.23;15.30;;;;;;;8.00;66.52;100967.09;5032446;28;20068;-60
2021/10/30 05:23:00;;;;;;;22.08;13.30;;;;;;;8.03;67.28;100965.69;5032602;28;20044;-60
2021/10/30 05:25:45;;;;;;;24.08;12.65;;;;;;;7.96;66.50;100962.56;5032469;28;20053;-61
2021/10/30 05:28:30;;;;;;;33.22;17.33;;;;;;;8.04;66.14;100964.59;5032369;28;20411;-60
2021/10/30 05:31:16;;;;;;;29.30;14.93;;;;;;;8.01;66.38;100978.72;5032154;28;20060;-61
2021/10/30 05:34:00;;;;;;;22.52;12.80;;;;;;;7.96;66.72;100976.91;5032483;28;20513;-60
2021/10/30 05:36:45;;;;;;;32.35;15.35;;;;;;;8.02;67.19;100977.63;5032419;28;20430;-60
2021/10/30 05:39:39;;;;;;;30.25;16.98;;;;;;;8.10;66.51;100979.69;5024863;28;20048;-60
2021/10/30 05:42:24;;;;;;;38.55;18.80;;;;;;;8.09;66.32;100978.88;5031977;28;20052;-60
2021/10/30 05:45:11;;;;;;;26.08;13.75;;;;;;;8.07;66.21;100989.22;5038946;28;20426;-60
2021/10/30 05:47:56;;;;;;;36.00;17.50;;;;;;;8.09;66.21;100994.31;5034550;28;20052;-60
2021/10/30 05:50:41;;;;;;;25.55;13.25;;;;;;;8.06;66.34;100998.44;5032117;28;20060;-60
2021/10/30 05:53:26;;;;;;;33.60;18.08;;;;;;;8.09;66.27;100994.31;5032013;28;20076;-60
2021/10/30 05:56:11;;;;;;;25.70;14.77;;;;;;;8.20;65.90;100993.06;5031870;28;20053;-60
2021/10/30 05:58:56;;;;;;;35.65;19.45;;;;;;;8.29;65.68;100985.91;5031981;28;20056;-61
2021/10/30 06:01:41;;;;;;;;;;;;;;;8.36;65.35;100991.00;5032333;28;20053;-61
2021/10/30 06:04:26;;;;;;;32.60;19.25;;;;;;;8.29;65.10;100991.31;5032133;28;19917;-61
2021/10/30 06:07:11;;;;;;;24.13;14.07;;;;;;;8.24;65.18;100999.53;5031304;28;20052;-61
2021/10/30 06:09:56;;;;;;;26.23;13.18;;;;;;;8.22;66.00;101009.84;5031551;28;20040;-62
2021/10/30 06:12:41;;;;;;;36.33;15.75;;;;;;;8.23;65.41;101010.66;5031594;28;20048;-61
2021/10/30 06:15:26;;;;;;;26.25;13.30;;;;;;;8.28;65.80;101019.50;5031780;28;20052;-61
2021/10/30 06:18:11;;;;;;;24.10;12.88;;;;;;;8.32;66.15;101022.47;5033498;28;20057;-60
2021/10/30 06:20:56;;;;;;;31.20;17.77;;;;;;;8.23;65.51;101022.28;5031297;28;20044;-61
2021/10/30 06:23:43;;;;;;;22.50;12.85;;;;;;;8.31;66.01;101020.88;5031676;28;20418;-60
2021/10/30 06:26:28;;;;;;;39.80;18.45;;;;;;;8.39;65.77;101021.00;5031489;28;20041;-61
2021/10/30 06:29:13;;;;;;;29.73;18.00;;;;;;;8.46;65.86;101016.03;5031340;28;20072;-61
2021/10/30 06:31:58;;;;;;;25.08;14.25;;;;;;;8.45;66.23;101010.91;5031528;28;20044;-60
2021/10/30 06:34:43;;;;;;;28.42;15.10;;;;;;;8.50;66.56;101010.81;5031395;28;20402;-60
2021/10/30 06:37:28;;;;;;;30.65;14.82;;;;;;;8.62;66.11;101010.38;5031216;28;20409;-61
2021/10/30 06:40:14;;;;;;;29.85;18.63;;;;;;;8.77;65.96;100999.31;5031274;28;20052;-61
2021/10/30 06:42:59;;;;;;;40.30;20.35;;;;;;;8.79;66.50;101002.50;5031162;28;20395;-60
2021/10/30 06:45:44;;;;;;;42.65;18.95;;;;;;;8.81;66.40;101008.44;5031294;28;20414;-61
2021/10/30 06:48:30;;;;;;;43.08;18.48;;;;;;;8.78;66.84;101019.91;5031305;28;20053;-61
2021/10/30 06:51:15;;;;;;;30.33;14.02;;;;;;;8.73;67.52;101028.13;5033289;28;20104;-61
2021/10/30 06:54:00;;;;;;;33.63;18.85;;;;;;;8.83;67.31;101025.25;5035192;28;20517;-61
2021/10/30 06:56:45;;;;;;;26.27;15.07;;;;;;;8.96;66.98;101030.72;5034989;28;20411;-60
2021/10/30 06:59:31;;;;;;;25.15;12.15;;;;;;;9.05;66.75;101028.09;5035110;28;20052;-61
2021/10/30 07:02:15;;;;;;;27.83;16.60;;;;;;;9.13;66.28;101027.44;5035036;28;20048;-61
2021/10/30 07:05:01;;;;;;;25.15;13.40;;;;;;;9.11;66.60;101029.63;5035079;28;20052;-61
2021/10/30 07:07:46;;;;;;;28.77;12.15;;;;;;;9.24;67.07;101038.94;5034683;28;20052;-62
2021/10/30 07:10:30;;;;;;;41.15;13.70;;;;;;;9.29;68.67;101028.78;5034979;28;20049;-60
2021/10/30 07:13:16;;;;;;;28.98;15.43;;;;;;;9.60;67.51;101033.66;5034924;28;20044;-60
2021/10/30 07:16:01;;;;;;;29.60;13.65;;;;;;;9.67;66.63;101034.03;5034987;28;20064;-59
2021/10/30 07:18:46;;;;;;;21.48;11.15;;;;;;;9.83;65.92;101030.75;5034992;28;20072;-60
2021/10/30 07:21:31;;;;;;;23.33;11.23;;;;;;;9.91;66.25;101029.22;5034549;28;20521;-60
2021/10/30 07:24:16;;;;;;;21.42;10.48;;;;;;;9.98;66.03;101028.81;5034782;28;20048;-60
2021/10/30 07:27:01;;;;;;;16.90;9.80;;;;;;;9.96;66.50;101042.69;5034611;28;20048;-60
2021/10/30 07:29:48;;;;;;;16.63;8.90;;;;;;;10.02;66.56;101043.41;5034655;28;20044;-60
2021/10/30 07:32:33;;;;;;;26.90;12.48;;;;;;;10.14;67.14;101051.84;5034400;28;20053;-60
2021/10/30 07:35:22;;;;;;;20.08;10.25;;;;;;;10.36;66.32;101054.66;5034601;28;20042;-60
2021/10/30 07:38:07;;;;;;;24.58;12.30;;;;;;;10.50;66.09;101060.06;5034430;28;20495;-60
2021/10/30 07:40:52;;;;;;;21.10;10.75;;;;;;;10.63;65.09;101059.22;5034270;28;20487;-60
2021/10/30 07:43:37;;;;;;;17.05;10.27;;;;;;;10.71;65.30;101061.22;5034323;28;20406;-60
2021/10/30 07:46:23;;;;;;;;;;;;;;;10.99;65.18;101051.81;5034765;28;20049;-60
2021/10/30 07:49:08;;;;;;;32.40;14.15;;;;;;;11.20;64.16;101054.03;5034174;28;19972;-60
2021/10/30 07:51:53;;;;;;;;;;;;;;;11.45;63.48;101058.84;5034983;28;20037;-60
2021/10/30 07:54:39;;;;;;;29.10;14.88;;;;;;;11.44;63.64;101058.03;5034358;28;19913;-61
2021/10/30 07:57:24;;;;;;;25.67;13.80;;;;;;;11.55;63.20;101064.00;5033980;28;20045;-60
2021/10/30 08:00:10;;;;;;;23.42;11.90;;;;;;;11.48;63.27;101063.66;5034073;28;20495;-60
2021/10/30 08:02:58;;;;;;;28.90;14.85;;;;;;;11.43;63.60;101064.59;5032738;28;20041;-60
2021/10/30 08:05:42;;;;;;;21.65;12.40;;;;;;;11.58;63.48;101068.81;5034279;28;20042;-60
2021/10/30 08:08:29;;;;;;;27.23;15.30;;;;;;;11.72;63.11;101061.38;5033873;28;20045;-60
2021/10/30 08:11:14;;;;;;;26.77;14.73;;;;;;;11.73;62.52;101060.31;5033948;28;20045;-60
2021/10/30 08:13:59;;;;;;;24.00;13.27;;;;;;;11.76;63.78;101059.66;5033830;28;20491;-60
2021/10/30 08:16:44;;;;;;;31.33;17.33;;;;;;;12.32;62.11;101066.22;5033724;28;20471;-60
2021/10/30 08:19:29;;;;;;;;;;;;;;;12.58;62.52;101064.34;5034041;28;20045;-60
2021/10/30 08:22:14;;;;;;;22.30;12.40;;;;;;;12.58;58.72;101069.00;5033706;28;19912;-60
2021/10/30 08:25:00;;;;;;;24.20;14.30;;;;;;;12.34;57.52;101064.00;5033570;28;20394;-60
2021/10/30 08:27:45;;;;;;;27.00;16.52;;;;;;;12.50;58.46;101062.41;5033728;28;20067;-60
2021/10/30 08:30:30;;;;;;;;;;;;;;;12.47;57.21;101073.16;5024568;28;20042;-60
2021/10/30 08:33:15;;;;;;;28.05;16.60;;;;;;;12.41;58.01;101069.78;5033504;28;19913;-60
2021/10/30 08:36:00;;;;;;;;;;;;;;;12.40;59.48;101068.97;5034099;28;20037;-60
2021/10/30 08:38:44;;;;;;;33.80;19.45;;;;;;;12.62;58.89;101070.78;5033540;28;19913;-61
2021/10/30 08:41:31;;;;;;;;;;;;;;;12.51;58.76;101068.66;5039547;28;20034;-61
2021/10/30 08:44:19;;;;;;;25.13;14.27;;;;;;;12.56;59.21;101061.13;5033344;28;19913;-61
2021/10/30 08:47:05;;;;;;;35.75;17.50;;;;;;;12.68;57.80;101055.84;5033220;28;20037;-61
2021/10/30 08:49:54;;;;;;;34.33;18.00;;;;;;;12.78;57.58;101058.25;5033109;28;20503;-61
2021/10/30 08:52:39;;;;;;;36.05;19.33;;;;;;;12.85;58.36;101066.75;5033236;28;20045;-62
2021/10/30 08:55:24;;;;;;;31.30;15.40;;;;;;;12.93;58.23;101061.63;5024961;28;20033;-61
2021/10/30 08:58:10;;;;;;;;;;;;;;;12.96;57.61;101061.78;5033300;28;20046;-61
2021/10/30 09:00:58;;;;;;;30.80;16.85;;;;;;;12.96;57.63;101064.50;5033000;28;19912;-61
2021/10/30 09:03:55;;;;;;;49.90;20.02;;;;;;;13.13;58.74;101063.72;5032986;28;20042;-61
2021/10/30 09:06:56;;;;;;;39.00;22.42;;;;;;;13.08;58.92;101058.38;5032900;28;20418;-61
2021/10/30 09:09:42;;;;;;;49.22;21.50;;;;;;;13.22;59.13;101068.03;5032771;28;20045;-62
2021/10/30 09:12:26;;;;;;;39.30;22.27;;;;;;;13.26;58.07;101062.72;5033010;28;20041;-61
2021/10/30 09:15:11;;;;;;;51.50;26.25;;;;;;;13.61;58.03;101058.75;5032441;28;20033;-61
2021/10/30 09:17:57;;;;;;;35.20;21.88;;;;;;;13.81;56.63;101045.53;5032530;28;20045;-61
2021/10/30 09:20:42;;;;;;;63.28;30.08;;;;;;;14.09;57.63;101052.94;5032340;28;20410;-62
2021/10/30 09:23:29;;;;;;;;;;;;;;;14.17;55.02;101056.72;5032899;28;20410;-61
2021/10/30 09:26:22;;;;;;;63.15;26.77;;;;;;;14.43;56.72;101054.66;5032448;28;19913;-61
2021/10/30 09:29:13;;;;;;;111.53;37.65;;;;;;;14.45;56.18;101055.16;5032233;28;20458;-61
2021/10/30 09:32:10;;;;;;;38.63;22.98;;;;;;;14.12;54.69;101056.91;5032383;28;20410;-62
2021/10/30 09:34:55;;;;;;;40.38;23.48;;;;;;;13.79;55.66;101048.56;5032389;28;20045;-62
2021/10/30 09:37:40;;;;;;;47.13;23.08;;;;;;;13.50;56.24;101046.59;5031944;28;20045;-62
2021/10/30 09:40:31;;;;;;;43.53;18.38;;;;;;;13.43;56.45;101056.41;5032182;28;20495;-62
2021/10/30 09:43:21;;;;;;;67.15;22.92;;;;;;;13.38;56.11;101056.59;5037362;28;20503;-62
2021/10/30 09:46:10;;;;;;;48.20;24.33;;;;;;;13.32;56.45;101064.16;5032516;28;20045;-62
2021/10/30 09:48:56;;;;;;;37.95;21.80;;;;;;;13.26;56.00;101068.19;5031787;28;20049;-62
2021/10/30 09:51:43;;;;;;;45.95;22.27;;;;;;;13.23;56.54;101074.31;5030562;28;20049;-62
2021/10/30 09:54:45;;;;;;;37.40;22.23;;;;;;;13.26;56.77;101074.44;5032220;28;20041;-62
2021/10/30 09:57:31;;;;;;;41.22;22.63;;;;;;;13.24;56.71;101070.44;5031760;28;20049;-62
2021/10/30 10:00:16;;;;;;;45.88;22.73;;;;;;;13.25;57.16;101072.88;5032168;28;20046;-62
2021/10/30 10:03:03;;;;;;;54.75;25.90;;;;;;;13.27;57.70;101072.53;5031995;28;20049;-62
2021/10/30 10:05:50;;;;;;;75.28;25.15;;;;;;;13.28;57.74;101072.22;5031930;28;20057;-62
2021/10/30 10:08:40;;;;;;;62.63;29.17;;;;;;;13.30;58.18;101066.44;5031795;28;20037;-62
2021/10/30 10:11:25;;;;;;;51.20;25.98;;;;;;;13.40;58.45;101066.09;5031679;28;20053;-63
2021/10/30 10:14:20;;;;;;;41.17;23.45;;;;;;;13.50;57.93;101060.28;5032216;28;20049;-62
2021/10/30 10:17:06;;;;;;;;;;;;;;;13.58;58.03;101061.34;5023663;28;20414;-63
2021/10/30 10:19:51;;;;;;;33.25;18.92;;;;;;;13.60;58.08;101062.66;5031968;28;19913;-62
2021/10/30 10:22:38;;;;;;;44.35;22.77;;;;;;;13.69;58.08;101060.69;5031845;28;20046;-62
2021/10/30 10:25:29;;;;;;;39.53;21.58;;;;;;;13.65;58.32;101064.41;5030436;28;20045;-62
2021/10/30 10:28:25;;;;;;;55.55;26.33;;;;;;;13.70;58.23;101062.28;5031876;28;20042;-62
2021/10/30 10:31:24;;;;;;;40.75;23.00;;;;;;;13.78;58.18;101060.63;5031898;28;20041;-62
2021/10/30 10:34:15;;;;;;;47.33;25.55;;;;;;;13.80;58.23;101057.59;5031843;28;20045;-62
2021/10/30 10:37:12;;;;;;;51.40;23.83;;;;;;;13.85;58.39;101051.94;5031536;28;20045;-62
2021/10/30 10:40:00;;;;;;;44.05;24.98;;;;;;;13.90;58.23;101046.28;5038730;28;20048;-62
2021/10/30 10:42:45;;;;;;;56.83;24.00;;;;;;;13.95;58.63;101035.16;5031321;28;20045;-62
2021/10/30 10:45:49;;;;;;;;;;;;;;;13.95;58.67;101040.63;5031904;28;20280;-63
2021/10/30 10:48:40;;;;;;;39.55;23.85;;;;;;;13.96;59.13;101042.22;5031679;28;19913;-63
2021/10/30 10:51:25;;;;;;;52.15;24.25;;;;;;;14.04;59.04;101044.91;5031415;28;20045;-63
2021/10/30 10:54:10;;;;;;;35.33;18.83;;;;;;;14.10;58.64;101042.78;5030791;28;20037;-62
2021/10/30 10:56:59;;;;;;;44.60;25.60;;;;;;;14.24;58.69;101032.41;5031166;28;20442;-63
2021/10/30 10:59:44;;;;;;;40.45;24.38;;;;;;;14.23;58.42;101025.31;5031497;28;20045;-62
2021/10/30 11:02:30;;;;;;;;;;;;;;;14.34;58.74;101023.81;5030890;28;20041;-62
2021/10/30 11:05:19;;;;;;;;;;;;;;;14.29;58.55;101018.53;5031803;28;19913;-63
2021/10/30 11:08:09;;;;;;;39.35;23.73;;;;;;;14.24;59.27;101010.53;5031274;28;19913;-63
2021/10/30 11:11:14;;;;;;;39.92;23.05;;;;;;;14.30;58.73;101011.94;5031303;28;20045;-63
2021/10/30 11:14:04;;;;;;;31.25;16.63;;;;;;;14.38;58.90;101016.56;5031251;28;20037;-62
2021/10/30 11:16:53;;;;;;;35.78;23.42;;;;;;;14.43;58.02;101021.84;5031254;28;20075;-63
2021/10/30 11:19:40;;;;;;;36.83;20.73;;;;;;;14.44;58.04;101015.22;5031198;28;20041;-63
2021/10/30 11:22:28;;;;;;;28.90;20.75;;;;;;;14.49;57.39;101016.97;5031096;28;20045;-62
2021/10/30 11:25:13;;;;;;;35.35;21.10;;;;;;;14.54;57.40;101011.28;5031455;28;20041;-62
2021/10/30 11:27:59;;;;;;;36.58;22.10;;;;;;;14.60;57.77;101009.16;5031080;28;20042;-62
2021/10/30 11:30:44;;;;;;;56.22;27.75;;;;;;;14.64;58.00;101004.59;5031027;28;20053;-62
2021/10/30 11:33:30;;;;;;;31.80;17.58;;;;;;;14.74;58.22;100996.78;5031051;28;20045;-62
2021/10/30 11:36:15;;;;;;;39.92;23.17;;;;;;;14.82;57.50;101001.41;5031239;28;20045;-62
2021/10/30 11:39:00;;;;;;;26.02;16.35;;;;;;;14.80;57.38;100994.63;5034363;28;20045;-62
2021/10/30 11:41:45;;;;;;;50.75;25.35;;;;;;;14.78;57.58;100989.50;5034660;28;20049;-62
2021/10/30 11:44:30;;;;;;;35.63;19.38;;;;;;;14.75;57.60;100981.16;5040395;28;20041;-62
2021/10/30 11:47:17;;;;;;;45.08;24.45;;;;;;;14.80;58.04;100980.94;5034406;28;20041;-63
2021/10/30 11:50:08;;;;;;;51.47;25.50;;;;;;;14.81;57.92;100977.88;5034272;28;20416;-62
2021/10/30 11:53:00;;;;;;;51.17;26.63;;;;;;;14.78;57.66;100975.03;5034412;28;20045;-62
2021/10/30 11:55:58;;;;;;;36.20;21.17;;;;;;;14.72;57.78;100970.91;5034285;28;20045;-62
2021/10/30 11:58:51;;;;;;;58.05;27.83;;;;;;;14.74;57.81;100974.88;5051889;23;20037;-63
2021/10/30 12:01:43;;;;;;;46.05;26.35;;;;;;;14.74;57.90;100974.06;5051973;28;20052;-63
2021/10/30 12:04:35;;;;;;;39.42;22.98;;;;;;;14.80;57.72;100962.59;5055089;28;20053;-62
2021/10/30 12:07:20;;;;;;;49.83;26.30;;;;;;;14.85;57.47;100965.13;5043601;28;20036;-63
2021/10/30 12:10:05;;;;;;;;;;;;;;;14.88;57.51;100966.41;5045969;28;20037;-63
2021/10/30 12:12:51;;;;;;;37.70;21.58;;;;;;;14.92;56.31;100959.91;5052045;28;19917;-63
2021/10/30 12:15:41;;;;;;;30.10;19.10;;;;;;;14.98;55.69;100965.97;5039294;28;20033;-63
2021/10/30 12:18:30;;;;;;;43.35;22.95;;;;;;;14.96;55.67;100960.81;5045986;28;20037;-63
2021/10/30 12:21:15;;;;;;;43.22;23.25;;;;;;;15.00;56.52;100960.94;5052985;28;20040;-63
2021/10/30 12:24:08;;;;;;;40.55;22.63;;;;;;;15.05;55.91;100962.66;5053562;28;20405;-63
2021/10/30 12:26:55;;;;;;;42.80;24.73;;;;;;;15.01;56.06;100964.47;5053421;28;20037;-63
2021/10/30 12:29:44;;;;;;;45.10;24.85;;;;;;;15.03;56.28;100964.94;5048962;28;20045;-63
2021/10/30 12:32:42;;;;;;;65.78;29.20;;;;;;;15.04;56.72;100963.78;5036123;28;20049;-63
2021/10/30 12:35:28;;;;;;;62.83;30.55;;;;;;;15.03;56.51;100965.75;5040241;28;20041;-64
2021/10/30 12:38:22;;;;;;;49.00;26.30;;;;;;;15.04;56.23;100967.31;5052868;28;20409;-64
2021/10/30 12:41:17;;;;;;;57.70;28.75;;;;;;;15.05;55.80;100957.97;5052757;28;20041;-64
2021/10/30 12:44:02;;;;;;;67.78;31.90;;;;;;;15.03;56.12;100964.94;5046322;28;20044;-64
2021/10/30 12:46:50;;;;;;;;;;;;;;;15.04;56.02;100967.31;5046555;28;20041;-64
2021/10/30 12:49:35;;;;;;;42.20;24.38;;;;;;;15.04;56.06;100970.06;5044714;28;19912;-64